This is the latest recevied weather packets stored in our database for station/object SP4MAZ-13. If no packets are shown the sender has not sent any weather packets the latest 10 day(s).
| Time | Temp. | Humidity | Pressure | Rain* | Wind** | Luminosity | Snow |
|---|---|---|---|---|---|---|---|
| 1777779182 | 6.67° C | 75% | 2147.4 hPa | - | - | - | - |
| 1777778879 | 6.67° C | 76% | 2147.4 hPa | - | - | - | - |
| 1777778576 | 6.11° C | 80% | 2147.4 hPa | - | - | - | - |
| 1777778274 | 6.11° C | 80% | 2147.4 hPa | - | - | - | - |
| 1777777973 | 5.56° C | 84% | 2147.4 hPa | - | - | - | - |
| 1777777669 | 5° C | 90% | 2147.4 hPa | - | - | - | - |
| 1777777366 | 4.44° C | 92% | 2147.4 hPa | - | - | - | - |
| 1777777063 | 3.89° C | 91% | 2147.4 hPa | - | - | - | - |
| 1777776759 | 4.44° C | 90% | 2147.4 hPa | - | - | - | - |
| 1777776458 | 4.44° C | 89% | 2147.4 hPa | - | - | - | - |
| 1777776155 | 4.44° C | 88% | 2147.4 hPa | - | - | - | - |
| 1777775851 | 4.44° C | 91% | 2147.4 hPa | - | - | - | - |
| 1777775246 | 4.44° C | 89% | 2147.4 hPa | - | - | - | - |
| 1777774943 | 4.44° C | 91% | 2147.4 hPa | - | - | - | - |
| 1777774639 | 4.44° C | 90% | 2147.4 hPa | - | - | - | - |
| 1777774336 | 4.44° C | 90% | 2147.4 hPa | - | - | - | - |
| 1777774032 | 4.44° C | 88% | 2147.4 hPa | - | - | - | - |
| 1777773729 | 4.44° C | 87% | 2147.4 hPa | - | - | - | - |
| 1777773425 | 5° C | 87% | 2147.4 hPa | - | - | - | - |
| 1777773122 | 5° C | 88% | 2147.4 hPa | - | - | - | - |
| 1777772821 | 4.44° C | 87% | 2147.4 hPa | - | - | - | - |
| 1777772217 | 5° C | 87% | 2147.4 hPa | - | - | - | - |
| 1777771306 | 4.44° C | 91% | 2147.4 hPa | - | - | - | - |
| 1777770699 | 5° C | 90% | 2147.4 hPa | - | - | - | - |
| 1777770396 | 5° C | 91% | 2147.4 hPa | - | - | - | - |
* Rain since midnight (hover to see other rain measurements)
** Current wind speed in m/s (hover to see current wind gust speed)